Time;durP1;ratioP1;P1;durP2;ratioP2;P2;SDS_P1;SDS_P2;PMS_P1;PMS_P2;Temp;Humidity;BMP_temperature;BMP_pressure;BME280_temperature;BME280_humidity;BME280_pressure;Samples;Min_cycle;Max_cycle;Signal;HPM_P1;HPM_P2
2023/06/11 00:01:08;;;;;;;5.75;5.35;;;28.20;42.70;28.90;100716.00;;;;5009866;28;20191;-54
2023/06/11 00:03:35;;;;;;;7.13;5.60;;;28.20;42.80;28.80;100726.00;;;;5010245;28;20179;-55
2023/06/11 00:06:01;;;;;;;5.95;5.43;;;28.10;42.80;28.80;100719.00;;;;5010106;28;20203;-54
2023/06/11 00:08:27;;;;;;;5.85;5.35;;;28.10;42.80;28.80;100717.00;;;;5010850;28;20262;-55
2023/06/11 00:10:52;;;;;;;5.80;5.30;;;28.20;42.80;28.80;100725.00;;;;5014123;28;20242;-54
2023/06/11 00:13:18;;;;;;;6.22;5.60;;;28.10;42.80;28.70;100722.00;;;;5013023;28;20748;-54
2023/06/11 00:15:44;;;;;;;5.85;5.40;;;28.10;42.80;28.70;100717.00;;;;5008355;28;20211;-54
2023/06/11 00:18:10;;;;;;;5.60;5.20;;;28.10;42.80;28.70;100716.00;;;;5008824;28;20226;-54
2023/06/11 00:20:40;;;;;;;6.13;5.63;;;28.00;42.80;28.70;100718.00;;;;5008764;28;20188;-54
2023/06/11 00:23:06;;;;;;;6.32;5.68;;;28.00;42.70;28.60;100718.00;;;;5009218;28;20557;-54
2023/06/11 00:25:32;;;;;;;6.13;5.53;;;28.00;43.40;28.60;100712.00;;;;5008505;28;20175;-54
2023/06/11 00:27:58;;;;;;;5.80;5.30;;;28.00;42.90;28.60;100719.00;;;;5008893;28;20176;-55
2023/06/11 00:30:24;;;;;;;5.55;5.15;;;28.00;42.90;28.60;100709.00;;;;5008970;28;20599;-54
2023/06/11 00:32:50;;;;;;;6.40;5.90;;;27.90;42.90;28.60;100705.00;;;;5009475;28;20219;-55
2023/06/11 00:35:16;;;;;;;5.68;5.28;;;27.90;43.00;28.60;100713.00;;;;5006456;28;20190;-54
2023/06/11 00:37:42;;;;;;;6.13;5.63;;;27.90;43.00;28.50;100714.00;;;;5008986;28;20199;-53
2023/06/11 00:40:08;;;;;;;6.18;5.57;;;27.90;43.00;28.50;100713.00;;;;5008991;28;20298;-54
2023/06/11 00:42:34;;;;;;;5.43;4.95;;;27.90;43.10;28.50;100715.00;;;;5008697;28;20260;-54
2023/06/11 00:45:06;;;;;;;6.35;5.72;;;27.90;43.20;28.40;100701.00;;;;5008505;28;20176;-54
2023/06/11 00:47:32;;;;;;;6.25;5.50;;;27.90;43.20;28.40;100713.00;;;;5006919;28;20230;-54
2023/06/11 00:49:59;;;;;;;5.85;5.32;;;27.80;43.20;28.40;100707.00;;;;5007534;28;20190;-55
2023/06/11 00:52:25;;;;;;;6.10;5.55;;;27.80;43.30;28.40;100706.00;;;;5007231;28;20274;-55
2023/06/11 00:54:51;;;;;;;5.93;5.50;;;27.80;43.40;28.40;100704.00;;;;4991512;28;20254;-54
2023/06/11 00:57:24;;;;;;;6.15;5.60;;;27.80;43.30;28.30;100709.00;;;;4991349;28;20632;-54
2023/06/11 00:59:53;;;;;;;6.05;5.50;;;27.70;43.40;28.30;100713.00;;;;5008696;28;20167;-54
2023/06/11 01:02:44;;;;;;;5.95;5.45;;;27.70;43.40;28.30;100713.00;;;;5008876;28;20200;-54
2023/06/11 01:05:11;;;;;;;5.93;5.38;;;27.70;43.50;28.20;100713.00;;;;5009560;28;20168;-55
2023/06/11 01:07:41;;;;;;;5.88;5.38;;;27.70;43.50;28.20;100709.00;;;;5007337;28;20184;-55
2023/06/11 01:10:07;;;;;;;5.80;5.30;;;27.70;43.50;28.20;100710.00;;;;5007258;28;20226;-54
2023/06/11 01:12:33;;;;;;;5.93;5.35;;;27.70;43.60;28.20;100713.00;;;;4990827;28;20207;-52
2023/06/11 01:14:59;;;;;;;6.40;5.80;;;27.60;43.60;28.20;100710.00;;;;5007058;28;20187;-54
2023/06/11 01:17:56;;;;;;;5.60;5.20;;;27.60;43.60;28.10;100711.00;;;;5007140;28;20184;-54
2023/06/11 01:20:39;;;;;;;6.43;5.60;;;27.60;43.70;28.10;100705.00;;;;4979829;28;20179;-52
2023/06/11 01:23:31;;;;;;;6.18;5.57;;;27.60;43.70;28.10;100706.00;;;;4976989;28;20199;-55
2023/06/11 01:26:15;;;;;;;6.15;5.55;;;27.60;43.80;28.00;100709.00;;;;5007947;28;20318;-54
2023/06/11 01:28:41;;;;;;;6.20;5.70;;;27.50;43.80;28.00;100715.00;;;;5008226;28;20218;-53
2023/06/11 01:31:14;;;;;;;5.93;5.50;;;27.50;43.80;28.00;100709.00;;;;4990553;28;20199;-54
2023/06/11 01:33:39;;;;;;;6.22;5.68;;;27.50;43.90;28.00;100708.00;;;;5007180;28;20229;-54
2023/06/11 01:36:05;;;;;;;5.80;5.30;;;27.50;43.90;27.90;100708.00;;;;5006182;28;20180;-53
2023/06/11 01:38:34;;;;;;;6.25;5.60;;;27.40;43.90;27.90;100712.00;;;;5006800;28;20306;-54
2023/06/11 01:41:01;;;;;;;6.30;5.80;;;27.50;43.90;27.90;100707.00;;;;5008448;28;20196;-54
2023/06/11 01:43:28;;;;;;;5.88;5.38;;;27.40;43.90;27.90;100709.00;;;;5006751;28;20164;-55
2023/06/11 01:45:55;;;;;;;6.28;5.78;;;27.40;43.90;27.90;100714.00;;;;5008024;28;20176;-54
2023/06/11 01:48:21;;;;;;;6.28;5.63;;;27.30;43.90;27.80;100725.00;;;;5008283;28;20195;-54
2023/06/11 01:50:47;;;;;;;6.07;5.57;;;27.30;44.00;27.80;100712.00;;;;5008030;28;20588;-54
2023/06/11 01:53:13;;;;;;;5.45;5.05;;;27.30;44.00;27.80;100713.00;;;;5007225;28;20191;-55
2023/06/11 01:55:39;;;;;;;6.03;5.38;;;27.30;44.00;27.80;100711.00;;;;5007618;28;20199;-54
2023/06/11 01:58:05;;;;;;;5.88;5.38;;;27.30;44.00;27.80;100712.00;;;;5006413;28;20196;-54
2023/06/11 02:00:31;;;;;;;6.05;5.38;;;27.20;44.00;27.70;100710.00;;;;5016155;28;20310;-54
2023/06/11 02:02:56;;;;;;;5.80;5.30;;;27.30;44.10;27.70;100709.00;;;;5018082;28;20249;-54
2023/06/11 02:05:22;;;;;;;6.15;5.65;;;27.20;44.10;27.70;100710.00;;;;5010534;28;20175;-54
2023/06/11 02:07:48;;;;;;;6.20;5.70;;;27.20;44.20;27.70;100708.00;;;;5011883;28;20815;-54
2023/06/11 02:10:14;;;;;;;6.32;5.82;;;27.20;44.20;27.70;100706.00;;;;5011619;28;20210;-54
2023/06/11 02:12:39;;;;;;;6.13;5.63;;;27.20;44.20;27.60;100718.00;;;;5011762;28;20214;-54
2023/06/11 02:15:06;;;;;;;5.47;5.03;;;27.10;44.20;27.60;100709.00;;;;5016338;28;20234;-54
2023/06/11 02:17:32;;;;;;;5.95;5.45;;;27.10;44.20;27.60;100719.00;;;;5018024;28;20187;-54
2023/06/11 02:19:57;;;;;;;6.22;5.72;;;27.10;44.30;27.60;100718.00;;;;5010965;28;20705;-54
2023/06/11 02:22:23;;;;;;;6.30;5.43;;;27.00;44.30;27.50;100714.00;;;;5011248;28;20226;-54
2023/06/11 02:24:49;;;;;;;6.05;5.50;;;27.00;44.30;27.50;100712.00;;;;5009937;28;20175;-54
2023/06/11 02:27:15;;;;;;;5.78;5.30;;;27.00;44.40;27.50;100718.00;;;;5011094;28;20172;-55
2023/06/11 02:29:40;;;;;;;6.35;5.75;;;27.00;44.50;27.50;100719.00;;;;5009827;28;20179;-54
2023/06/11 02:32:07;;;;;;;5.95;5.38;;;27.00;44.60;27.40;100721.00;;;;5010558;28;20234;-54
2023/06/11 02:34:32;;;;;;;5.97;5.50;;;27.00;44.60;27.40;100719.00;;;;5010466;28;20246;-54
2023/06/11 02:36:58;;;;;;;6.10;5.60;;;27.00;44.60;27.40;100720.00;;;;5010205;28;20180;-58
2023/06/11 02:39:24;;;;;;;6.40;5.40;;;27.00;44.70;27.40;100716.00;;;;5009342;28;20188;-54
2023/06/11 02:41:50;;;;;;;6.05;5.55;;;26.90;44.80;27.40;100721.00;;;;5011057;28;20196;-55
2023/06/11 02:44:15;;;;;;;6.38;5.82;;;26.90;44.80;27.30;100721.00;;;;5009790;28;20650;-54
2023/06/11 02:46:41;;;;;;;6.00;5.50;;;26.90;44.90;27.30;100723.00;;;;5010631;28;20203;-54
2023/06/11 02:49:07;;;;;;;5.97;5.47;;;26.90;45.00;27.30;100715.00;;;;5009813;28;20298;-52
2023/06/11 02:51:32;;;;;;;5.90;5.40;;;26.90;45.10;27.30;100707.00;;;;5010461;28;20223;-54
2023/06/11 02:53:58;;;;;;;5.82;5.32;;;26.90;45.20;27.30;100713.00;;;;5011148;28;20191;-54
2023/06/11 02:56:24;;;;;;;5.43;5.03;;;26.80;45.10;27.20;100727.00;;;;5008870;28;20203;-54
2023/06/11 02:58:50;;;;;;;6.15;5.65;;;26.80;45.30;27.20;100724.00;;;;5010846;28;20208;-54
2023/06/11 03:01:15;;;;;;;6.78;5.50;;;26.80;45.30;27.20;100735.00;;;;5008875;28;20192;-54
2023/06/11 03:03:41;;;;;;;6.10;5.60;;;26.80;45.40;27.20;100719.00;;;;5010308;28;20226;-55
2023/06/11 03:06:08;;;;;;;5.50;5.10;;;26.80;45.40;27.20;100726.00;;;;5009775;28;20168;-55
2023/06/11 03:08:33;;;;;;;5.90;5.43;;;26.80;45.60;27.10;100719.00;;;;5010035;28;20207;-56
2023/06/11 03:10:59;;;;;;;5.88;5.38;;;26.80;45.60;27.20;100728.00;;;;5008599;28;20203;-54
2023/06/11 03:13:25;;;;;;;5.93;5.43;;;26.70;45.60;27.10;100722.00;;;;5009147;28;20688;-52
2023/06/11 03:15:50;;;;;;;6.38;5.78;;;26.70;45.70;27.10;100711.00;;;;5009802;28;20184;-57
2023/06/11 03:18:16;;;;;;;5.90;5.40;;;26.70;45.80;27.10;100730.00;;;;4976955;28;20243;-53
2023/06/11 03:20:43;;;;;;;7.05;5.65;;;26.70;46.20;27.10;100735.00;;;;4999064;28;20187;-53
2023/06/11 03:23:10;;;;;;;7.35;5.95;;;26.70;46.00;27.10;100723.00;;;;5008577;28;20713;-55
2023/06/11 03:25:36;;;;;;;6.18;5.68;;;26.70;46.00;27.10;100735.00;;;;5009275;28;20174;-55
2023/06/11 03:28:02;;;;;;;7.70;5.70;;;26.70;46.10;27.00;100724.00;;;;5009404;28;20176;-55
2023/06/11 03:30:28;;;;;;;6.15;5.63;;;26.60;46.30;27.00;100737.00;;;;5009517;28;20215;-55
2023/06/11 03:32:54;;;;;;;6.30;5.65;;;26.70;46.40;27.00;100737.00;;;;5009301;28;20215;-54
2023/06/11 03:35:20;;;;;;;6.00;5.50;;;26.60;46.40;27.00;100738.00;;;;5007792;28;20203;-55
2023/06/11 03:37:46;;;;;;;6.00;5.50;;;26.60;46.40;27.00;100726.00;;;;5008199;28;20199;-55
2023/06/11 03:40:12;;;;;;;6.20;5.70;;;26.50;46.40;27.00;100739.00;;;;5009488;28;20196;-54
2023/06/11 03:42:38;;;;;;;6.13;5.63;;;26.50;46.40;27.00;100740.00;;;;5009513;28;20203;-54
2023/06/11 03:45:04;;;;;;;5.95;5.45;;;26.60;46.60;26.90;100736.00;;;;5008178;28;20174;-55
2023/06/11 03:47:30;;;;;;;6.28;5.78;;;26.50;46.50;26.90;100736.00;;;;5008557;28;20176;-54
2023/06/11 03:49:55;;;;;;;5.97;5.47;;;26.50;46.60;26.90;100739.00;;;;5009259;28;20810;-54
2023/06/11 03:52:21;;;;;;;5.85;5.35;;;26.50;46.70;26.90;100735.00;;;;5009166;28;20270;-53
2023/06/11 03:54:47;;;;;;;6.50;5.88;;;26.50;46.70;26.90;100728.00;;;;5009385;28;20596;-54
2023/06/11 03:57:12;;;;;;;6.40;5.90;;;26.50;46.80;26.90;100732.00;;;;5008096;28;20163;-54
2023/06/11 03:59:39;;;;;;;6.22;5.72;;;26.50;47.00;26.90;100740.00;;;;5008562;28;20216;-54
2023/06/11 04:02:04;;;;;;;6.30;5.80;;;26.50;47.00;26.80;100748.00;;;;5008107;28;20545;-54
2023/06/11 04:04:32;;;;;;;6.30;5.80;;;26.50;47.10;26.80;100744.00;;;;5013152;28;20264;-54
2023/06/11 04:06:58;;;;;;;6.32;5.72;;;26.40;47.20;26.80;100747.00;;;;5016430;28;20167;-54
2023/06/11 04:09:24;;;;;;;6.30;5.80;;;26.40;47.20;26.80;100742.00;;;;5009469;28;20237;-54
2023/06/11 04:11:50;;;;;;;6.40;5.90;;;26.40;47.30;26.80;100754.00;;;;5008414;28;20198;-55
2023/06/11 04:14:15;;;;;;;6.57;6.07;;;26.40;47.40;26.80;100746.00;;;;5009307;28;20703;-54
2023/06/11 04:16:41;;;;;;;6.20;5.70;;;26.40;47.50;26.70;100747.00;;;;5007840;28;20176;-54
2023/06/11 04:19:07;;;;;;;5.88;5.47;;;26.40;47.50;26.70;100761.00;;;;5010980;28;20203;-54
2023/06/11 04:21:32;;;;;;;6.20;5.55;;;26.40;47.70;26.70;100751.00;;;;5015062;28;20203;-55
2023/06/11 04:23:58;;;;;;;6.20;5.60;;;26.40;47.80;26.70;100762.00;;;;5008592;28;20175;-54
2023/06/11 04:26:25;;;;;;;5.70;5.13;;;26.40;47.80;26.70;100753.00;;;;5008485;28;20564;-54
2023/06/11 04:28:52;;;;;;;5.90;5.43;;;26.30;47.80;26.70;100762.00;;;;5008976;28;20210;-54
2023/06/11 04:31:18;;;;;;;5.88;5.47;;;26.30;48.00;26.70;100750.00;;;;5008253;28;20188;-54
2023/06/11 04:33:45;;;;;;;6.45;5.72;;;26.30;48.00;26.60;100753.00;;;;5008637;28;20175;-54
2023/06/11 04:36:11;;;;;;;6.28;5.78;;;26.30;48.10;26.60;100764.00;;;;5007315;28;20254;-55
2023/06/11 04:38:37;;;;;;;6.38;5.88;;;26.30;48.10;26.60;100767.00;;;;5008583;28;20745;-55
2023/06/11 04:41:06;;;;;;;6.03;5.53;;;26.30;48.30;26.60;100755.00;;;;5008233;28;20192;-54
2023/06/11 04:43:36;;;;;;;7.25;5.75;;;26.30;48.30;26.60;100757.00;;;;5008356;28;20184;-55
2023/06/11 04:46:03;;;;;;;6.20;5.70;;;26.20;48.40;26.60;100763.00;;;;5008193;28;20214;-55
2023/06/11 04:48:31;;;;;;;6.05;5.55;;;26.20;48.40;26.60;100754.00;;;;5007630;28;20743;-55
2023/06/11 04:50:59;;;;;;;6.35;5.85;;;26.20;48.40;26.60;100751.00;;;;5007585;28;20188;-54
2023/06/11 04:53:27;;;;;;;6.10;5.50;;;26.20;48.50;26.60;100762.00;;;;5008127;28;20263;-55
2023/06/11 04:55:54;;;;;;;6.35;5.85;;;26.20;48.60;26.60;100756.00;;;;5008158;28;20179;-52
2023/06/11 04:58:24;;;;;;;6.20;5.70;;;26.20;48.70;26.50;100753.00;;;;5008030;28;20196;-54
2023/06/11 05:00:50;;;;;;;6.63;6.03;;;26.20;48.90;26.50;100753.00;;;;5007615;28;20180;-53
2023/06/11 05:03:19;;;;;;;6.13;5.63;;;26.20;49.00;26.60;100742.00;;;;5008176;28;20203;-53
2023/06/11 05:05:51;;;;;;;6.07;5.53;;;26.20;49.10;26.50;100749.00;;;;5007864;28;20202;-53
2023/06/11 05:08:28;;;;;;;8.30;5.97;;;26.20;49.10;26.50;100737.00;;;;5008043;28;20615;-53
2023/06/11 05:10:54;;;;;;;13.80;6.88;;;26.20;49.20;26.50;100747.00;;;;5007570;28;20262;-53
2023/06/11 05:13:24;;;;;;;9.05;6.22;;;26.20;49.20;26.50;100748.00;;;;5007791;28;20183;-55
2023/06/11 05:15:54;;;;;;;6.18;5.57;;;26.20;49.40;26.50;100747.00;;;;5007626;28;20168;-53
2023/06/11 05:18:20;;;;;;;6.15;5.70;;;26.20;49.60;26.50;100744.00;;;;5007336;28;20261;-55
2023/06/11 05:20:48;;;;;;;6.40;5.80;;;26.10;49.40;26.50;100753.00;;;;5007528;28;20176;-56
2023/06/11 05:23:18;;;;;;;6.25;5.75;;;26.20;49.70;26.50;100755.00;;;;5007814;28;20634;-55
2023/06/11 05:25:47;;;;;;;5.90;5.50;;;26.20;49.90;26.40;100757.00;;;;5007743;28;20179;-54
2023/06/11 05:28:13;;;;;;;6.50;5.95;;;26.10;49.90;26.40;100760.00;;;;5007989;28;20214;-54
2023/06/11 05:30:43;;;;;;;6.10;5.60;;;26.10;49.90;26.40;100756.00;;;;5007932;28;20203;-53
2023/06/11 05:33:09;;;;;;;6.03;5.55;;;26.10;49.90;26.40;100770.00;;;;5007682;28;20259;-55
2023/06/11 05:35:35;;;;;;;6.30;5.80;;;26.10;50.10;26.40;100769.00;;;;5010614;28;20710;-55
2023/06/11 05:38:03;;;;;;;6.45;5.85;;;26.10;50.10;26.40;100768.00;;;;5011228;28;20199;-56
2023/06/11 05:40:30;;;;;;;6.00;5.60;;;26.10;50.10;26.40;100767.00;;;;5011409;28;20226;-56
2023/06/11 05:42:56;;;;;;;6.32;5.80;;;26.10;50.20;26.40;100764.00;;;;5011514;28;20278;-55
2023/06/11 05:45:21;;;;;;;6.38;5.75;;;26.10;50.20;26.40;100773.00;;;;5009955;28;20254;-56
2023/06/11 05:47:47;;;;;;;6.40;5.93;;;26.10;50.30;26.40;100776.00;;;;5010952;28;20742;-55
2023/06/11 05:50:13;;;;;;;6.75;6.13;;;26.10;50.20;26.40;100786.00;;;;5011237;28;20325;-55
2023/06/11 05:52:39;;;;;;;6.05;5.53;;;26.10;50.30;26.40;100772.00;;;;5011544;28;20211;-55
2023/06/11 05:55:05;;;;;;;6.45;5.90;;;26.10;50.40;26.40;100774.00;;;;5011367;28;20172;-55
2023/06/11 05:57:30;;;;;;;6.78;6.13;;;26.10;50.50;26.40;100774.00;;;;5009793;28;20590;-54
2023/06/11 05:59:56;;;;;;;5.97;5.47;;;26.10;50.50;26.40;100784.00;;;;5011130;28;20202;-54
2023/06/11 06:02:22;;;;;;;5.93;5.43;;;26.10;50.50;26.40;100781.00;;;;5009944;28;20291;-59
2023/06/11 06:04:48;;;;;;;5.75;5.30;;;26.10;50.40;26.40;100788.00;;;;5010916;28;20188;-55
2023/06/11 06:07:15;;;;;;;5.95;5.55;;;26.10;50.50;26.40;100785.00;;;;5011425;28;20198;-56
2023/06/11 06:09:41;;;;;;;5.93;5.43;;;26.10;50.50;26.40;100782.00;;;;5018714;28;20263;-54
2023/06/11 06:12:07;;;;;;;6.03;5.63;;;26.10;50.50;26.30;100788.00;;;;5020338;28;20227;-54
2023/06/11 06:14:33;;;;;;;5.60;5.10;;;26.00;50.40;26.40;100795.00;;;;5011081;28;20717;-55
2023/06/11 06:16:59;;;;;;;6.60;5.82;;;26.10;50.30;26.40;100791.00;;;;5010766;28;20254;-54
2023/06/11 06:19:24;;;;;;;6.20;5.60;;;26.10;50.20;26.40;100795.00;;;;5011007;28;20204;-56
2023/06/11 06:21:50;;;;;;;6.13;5.63;;;26.10;50.10;26.40;100798.00;;;;5010955;28;20278;-56
2023/06/11 06:24:16;;;;;;;6.03;5.53;;;26.10;50.10;26.40;100799.00;;;;5016469;28;20187;-54
2023/06/11 06:26:44;;;;;;;6.05;5.55;;;26.10;50.10;26.40;100797.00;;;;5016960;28;20172;-55
2023/06/11 06:29:12;;;;;;;5.85;5.43;;;26.10;50.20;26.30;100795.00;;;;5011049;28;20179;-55
2023/06/11 06:31:41;;;;;;;6.22;5.63;;;26.00;50.10;26.30;100803.00;;;;5010513;28;20818;-53
2023/06/11 06:34:07;;;;;;;6.18;5.68;;;26.10;50.10;26.40;100799.00;;;;5011004;28;20190;-54
2023/06/11 06:36:34;;;;;;;5.75;5.35;;;26.10;50.00;26.40;100801.00;;;;5009408;28;20665;-54
2023/06/11 06:39:01;;;;;;;5.68;5.18;;;26.10;50.10;26.40;100803.00;;;;5010617;28;20207;-52
2023/06/11 06:41:27;;;;;;;6.20;5.60;;;26.00;50.00;26.30;100804.00;;;;5009782;28;20196;-53
2023/06/11 06:43:53;;;;;;;5.82;5.32;;;26.10;50.10;26.30;100806.00;;;;5010912;28;20557;-53
2023/06/11 06:46:18;;;;;;;5.40;5.00;;;26.10;50.00;26.40;100799.00;;;;5009527;28;20176;-54
2023/06/11 06:48:44;;;;;;;6.00;5.32;;;26.10;50.00;26.40;100804.00;;;;5010296;28;20731;-54
2023/06/11 06:51:10;;;;;;;5.50;5.10;;;26.10;49.90;26.40;100815.00;;;;5009827;28;20231;-54
2023/06/11 06:53:36;;;;;;;5.68;5.28;;;26.10;49.90;26.40;100810.00;;;;5010018;28;20230;-53
2023/06/11 06:56:05;;;;;;;5.80;5.40;;;26.10;50.00;26.40;100805.00;;;;5009948;28;20179;-53
2023/06/11 06:58:31;;;;;;;5.85;5.38;;;26.10;49.90;26.40;100816.00;;;;5009976;28;20203;-53
2023/06/11 07:00:57;;;;;;;6.07;5.35;;;26.10;49.90;26.40;100819.00;;;;5008269;28;20234;-55
2023/06/11 07:03:23;;;;;;;5.93;5.43;;;26.10;50.10;26.30;100817.00;;;;5009760;28;20587;-53
2023/06/11 07:05:49;;;;;;;5.20;4.80;;;26.00;50.30;26.30;100827.00;;;;5009698;28;20203;-55
2023/06/11 07:08:14;;;;;;;6.00;5.50;;;26.10;50.40;26.30;100810.00;;;;5009441;28;20207;-52
2023/06/11 07:10:41;;;;;;;5.50;5.10;;;26.00;50.20;26.30;100820.00;;;;5009793;28;20302;-53
2023/06/11 07:13:10;;;;;;;5.53;5.13;;;26.10;50.20;26.40;100827.00;;;;5005281;28;20657;-55
2023/06/11 07:15:35;;;;;;;5.53;5.13;;;26.10;50.20;26.40;100821.00;;;;5008490;28;20179;-55
2023/06/11 07:18:01;;;;;;;5.70;5.22;;;26.10;50.20;26.40;100821.00;;;;5009747;28;20200;-54
2023/06/11 07:20:27;;;;;;;5.68;5.28;;;26.10;50.20;26.40;100836.00;;;;5009662;28;20831;-54
2023/06/11 07:22:52;;;;;;;5.25;4.93;;;26.10;50.30;26.40;100826.00;;;;5009146;28;20604;-54
2023/06/11 07:25:18;;;;;;;5.55;5.15;;;26.10;50.30;26.40;100829.00;;;;5009448;28;20242;-54
2023/06/11 07:27:44;;;;;;;5.90;5.50;;;26.10;50.20;26.40;100834.00;;;;5007517;28;20172;-54
2023/06/11 07:30:11;;;;;;;5.60;5.20;;;26.10;50.10;26.40;100826.00;;;;5008718;28;20206;-54
2023/06/11 07:32:37;;;;;;;5.72;5.32;;;26.10;50.10;26.40;100830.00;;;;5008790;28;20203;-54
2023/06/11 07:35:03;;;;;;;6.30;5.80;;;26.10;50.30;26.40;100829.00;;;;5008417;28;20178;-53
2023/06/11 07:37:31;;;;;;;5.43;5.03;;;26.00;50.50;26.40;100820.00;;;;5009128;28;20256;-54
2023/06/11 07:39:56;;;;;;;5.68;5.28;;;26.00;50.50;26.40;100832.00;;;;5009176;28;20694;-55
2023/06/11 07:42:22;;;;;;;5.47;5.05;;;26.00;50.50;26.40;100830.00;;;;5008115;28;20246;-54
2023/06/11 07:44:48;;;;;;;5.97;5.50;;;26.00;50.70;26.30;100822.00;;;;5007636;28;20198;-55
2023/06/11 07:47:13;;;;;;;5.93;5.53;;;26.00;50.60;26.50;100829.00;;;;5007914;28;20233;-55
2023/06/11 07:49:39;;;;;;;5.85;5.35;;;26.00;50.60;26.50;100830.00;;;;5007434;28;20848;-54
2023/06/11 07:52:05;;;;;;;5.65;5.22;;;26.00;50.70;26.50;100820.00;;;;5008471;28;20211;-54
2023/06/11 07:54:32;;;;;;;6.13;5.10;;;26.10;50.80;26.50;100820.00;;;;5007399;28;20200;-55
2023/06/11 07:56:58;;;;;;;5.95;5.07;;;26.10;50.80;26.50;100833.00;;;;5006824;28;20186;-54
2023/06/11 07:59:24;;;;;;;5.57;5.07;;;26.10;50.80;26.60;100818.00;;;;5008861;28;20199;-53
2023/06/11 08:01:49;;;;;;;5.63;5.13;;;26.10;50.60;26.60;100820.00;;;;5007270;28;20199;-54
2023/06/11 08:04:15;;;;;;;5.50;5.00;;;26.10;50.50;26.60;100824.00;;;;5007480;28;20621;-54
2023/06/11 08:06:43;;;;;;;5.82;5.28;;;26.20;51.00;26.60;100810.00;;;;5008151;28;20171;-55
2023/06/11 08:09:09;;;;;;;5.15;4.75;;;26.10;50.80;26.60;100823.00;;;;5007258;28;20536;-55
2023/06/11 08:11:34;;;;;;;5.43;4.90;;;26.10;50.60;26.60;100824.00;;;;5007451;28;20204;-54
2023/06/11 08:14:00;;;;;;;5.10;4.70;;;26.20;50.60;26.60;100820.00;;;;5007407;28;20187;-54
2023/06/11 08:16:26;;;;;;;5.25;4.80;;;26.20;50.60;26.60;100817.00;;;;5009133;28;20179;-53
2023/06/11 08:18:53;;;;;;;5.60;5.10;;;26.20;50.60;26.60;100819.00;;;;5016249;28;20207;-54
2023/06/11 08:21:19;;;;;;;5.20;4.90;;;26.20;50.60;26.70;100801.00;;;;5013474;28;20284;-54
2023/06/11 08:23:45;;;;;;;4.97;4.68;;;26.20;50.80;26.70;100824.00;;;;5009170;28;20219;-54
2023/06/11 08:26:12;;;;;;;5.68;5.00;;;26.20;50.90;26.70;100802.00;;;;5008668;28;20179;-55
2023/06/11 08:28:37;;;;;;;5.13;4.80;;;26.20;51.50;26.80;100825.00;;;;5008299;28;20183;-55
2023/06/11 08:31:03;;;;;;;5.18;4.78;;;26.30;50.90;26.80;100814.00;;;;5011037;28;20200;-54
2023/06/11 08:33:29;;;;;;;5.55;5.05;;;26.30;50.90;26.80;100812.00;;;;5013716;28;21014;-55
2023/06/11 08:35:55;;;;;;;5.10;4.68;;;26.30;51.10;26.80;100799.00;;;;5006842;28;20181;-55
2023/06/11 08:38:21;;;;;;;5.50;5.00;;;26.30;51.20;26.80;100807.00;;;;5008172;28;20702;-54
2023/06/11 08:40:47;;;;;;;5.15;4.85;;;26.30;51.10;26.90;100815.00;;;;5009339;28;20182;-56
2023/06/11 08:43:13;;;;;;;5.60;5.10;;;26.30;51.30;26.90;100814.00;;;;5008129;28;20168;-55
2023/06/11 08:45:39;;;;;;;5.20;4.72;;;26.30;51.30;26.90;100816.00;;;;5007592;28;20183;-55
2023/06/11 08:48:05;;;;;;;5.47;5.05;;;26.30;50.80;26.90;100814.00;;;;5007519;28;20183;-54
2023/06/11 08:50:31;;;;;;;5.13;4.75;;;26.30;50.70;26.90;100816.00;;;;5003411;28;20209;-55
2023/06/11 08:53:00;;;;;;;5.43;5.03;;;26.40;50.70;26.90;100816.00;;;;5006315;28;20195;-60
2023/06/11 08:55:26;;;;;;;5.13;4.63;;;26.40;50.90;27.00;100810.00;;;;5006663;28;20183;-57
2023/06/11 08:57:52;;;;;;;5.35;4.93;;;26.40;50.80;27.00;100810.00;;;;5006633;28;20183;-57
2023/06/11 09:00:19;;;;;;;5.40;5.00;;;26.40;51.30;27.00;100754.00;;;;5006300;28;20172;-57
2023/06/11 09:02:45;;;;;;;5.30;4.90;;;26.40;51.20;27.10;100822.00;;;;5007318;28;20310;-58
2023/06/11 09:05:11;;;;;;;5.68;5.10;;;26.40;51.20;27.10;100824.00;;;;5007971;28;20564;-57
2023/06/11 09:07:36;;;;;;;5.25;4.85;;;26.40;51.30;27.10;100810.00;;;;5008398;28;20175;-59
2023/06/11 09:10:06;;;;;;;5.70;5.20;;;26.50;51.40;27.20;100812.00;;;;5016137;28;20171;-58
2023/06/11 09:12:32;;;;;;;6.50;5.20;;;26.50;51.40;27.20;100802.00;;;;5011166;28;20291;-57
2023/06/11 09:14:58;;;;;;;5.20;4.70;;;26.50;51.60;27.20;100824.00;;;;5011490;28;20198;-58
2023/06/11 09:17:26;;;;;;;5.05;4.65;;;26.50;51.70;27.20;100804.00;;;;5011821;28;20704;-58
2023/06/11 09:19:53;;;;;;;4.93;4.43;;;26.50;51.60;27.20;100806.00;;;;5011896;28;20204;-58
2023/06/11 09:22:26;;;;;;;4.95;4.40;;;26.50;51.60;27.20;100803.00;;;;5010050;28;20195;-58
2023/06/11 09:24:51;;;;;;;5.22;4.80;;;26.60;51.70;27.30;100800.00;;;;5011313;28;20199;-57
2023/06/11 09:27:20;;;;;;;4.90;4.60;;;26.60;51.70;27.30;100803.00;;;;5011645;28;20922;-58
2023/06/11 09:29:46;;;;;;;4.60;4.20;;;26.60;51.70;27.30;100796.00;;;;5010373;28;20926;-58
2023/06/11 09:32:12;;;;;;;5.13;4.72;;;26.60;51.70;27.30;100798.00;;;;5011215;28;20196;-59
2023/06/11 09:34:38;;;;;;;4.78;4.18;;;26.60;51.80;27.30;100796.00;;;;5011126;28;20183;-58
2023/06/11 09:37:04;;;;;;;5.10;4.70;;;26.60;51.80;27.30;100787.00;;;;5008984;28;20188;-57
2023/06/11 09:39:30;;;;;;;4.85;4.45;;;26.60;52.30;27.30;100800.00;;;;5009292;28;20572;-57
2023/06/11 09:41:56;;;;;;;4.55;4.15;;;26.70;52.50;27.40;100808.00;;;;5008335;28;20273;-56
2023/06/11 09:44:23;;;;;;;4.82;4.38;;;26.70;52.40;27.40;100803.00;;;;5008986;28;20218;-56
2023/06/11 09:46:49;;;;;;;4.40;4.10;;;26.70;52.40;27.40;100807.00;;;;5009954;28;20459;-58
2023/06/11 09:49:15;;;;;;;4.82;4.43;;;26.70;52.50;27.40;100813.00;;;;5006440;28;20596;-58
2023/06/11 09:51:42;;;;;;;4.57;4.25;;;26.70;52.50;27.50;100809.00;;;;5002291;28;20230;-58
2023/06/11 09:54:08;;;;;;;4.70;4.40;;;26.70;52.60;27.50;100812.00;;;;4985622;28;20177;-58
2023/06/11 09:56:38;;;;;;;4.63;4.22;;;26.70;52.70;27.50;100816.00;;;;5006758;28;20180;-58
2023/06/11 09:59:04;;;;;;;4.80;4.50;;;26.70;52.80;27.50;100808.00;;;;5007352;28;20249;-58
2023/06/11 10:01:30;;;;;;;4.90;4.50;;;26.80;53.00;27.50;100791.00;;;;4999897;28;20200;-57
2023/06/11 10:03:59;;;;;;;5.03;4.50;;;26.80;53.20;27.60;100795.00;;;;5006855;28;20286;-59
2023/06/11 10:06:32;;;;;;;4.70;4.40;;;26.80;53.20;27.60;100811.00;;;;5001433;28;20567;-59
2023/06/11 10:09:00;;;;;;;4.75;4.13;;;26.80;53.20;27.60;100802.00;;;;4990629;28;20604;-58
2023/06/11 10:11:26;;;;;;;4.20;3.90;;;26.80;53.20;27.60;100793.00;;;;5005352;28;20195;-58
2023/06/11 10:14:00;;;;;;;4.70;4.30;;;26.80;53.20;27.60;100806.00;;;;4994588;28;20201;-58
2023/06/11 10:16:27;;;;;;;4.60;4.20;;;26.90;53.40;27.60;100813.00;;;;4977488;28;20180;-57
2023/06/11 10:19:11;;;;;;;4.40;4.10;;;26.90;53.30;27.70;100799.00;;;;5009041;28;20254;-58
2023/06/11 10:21:42;;;;;;;5.70;4.45;;;26.90;53.80;27.70;100801.00;;;;5008015;28;20665;-57
2023/06/11 10:24:08;;;;;;;4.30;4.00;;;26.90;53.90;27.70;100762.00;;;;5010101;28;20712;-56
2023/06/11 10:26:35;;;;;;;4.43;4.13;;;27.00;54.20;27.50;100797.00;;;;5017974;28;20184;-55
2023/06/11 10:29:01;;;;;;;4.60;4.18;;;26.90;54.20;27.70;100798.00;;;;5017019;28;20263;-58
2023/06/11 10:31:28;;;;;;;4.47;4.18;;;27.00;54.10;27.80;100800.00;;;;5010194;28;20655;-56
2023/06/11 10:34:01;;;;;;;4.38;4.07;;;27.00;54.00;27.80;100808.00;;;;5010476;28;20175;-58
2023/06/11 10:36:33;;;;;;;4.80;4.47;;;27.00;53.80;27.80;100811.00;;;;5008668;28;20184;-57
2023/06/11 10:39:09;;;;;;;4.55;4.25;;;27.00;53.60;27.80;100803.00;;;;5010712;28;20192;-59
2023/06/11 10:41:41;;;;;;;4.40;4.10;;;27.10;53.70;27.80;100808.00;;;;5014435;28;20211;-57
2023/06/11 10:44:07;;;;;;;4.30;4.00;;;27.10;53.70;27.80;100806.00;;;;5023325;28;20199;-58
2023/06/11 10:46:51;;;;;;;4.45;4.15;;;27.10;53.70;27.90;100797.00;;;;5013315;28;20230;-57